createdAt,value
2023-04-10T08:16:31.035Z,64.73
2023-04-10T08:18:58.312Z,62.05
2023-04-10T08:21:26.865Z,58.39
2023-04-10T08:23:54.702Z,56.32
2023-04-10T08:26:21.611Z,55.05
2023-04-10T08:28:50.858Z,54.51
2023-04-10T08:31:18.663Z,53.74
2023-04-10T08:33:45.779Z,53.17
2023-04-10T08:36:13.223Z,51.74
2023-04-10T08:38:39.992Z,51.25
2023-04-10T08:41:06.869Z,51.84
2023-04-10T08:43:34.782Z,49.10
2023-04-10T08:46:01.950Z,49.40
2023-04-10T08:48:36.206Z,49.51
2023-04-10T08:51:04.965Z,50.05
2023-04-10T08:53:36.123Z,49.71
2023-04-10T08:56:04.452Z,46.53
2023-04-10T08:58:31.292Z,46.12
2023-04-10T09:00:58.144Z,45.85
2023-04-10T09:03:25.957Z,46.87
2023-04-10T09:05:53.910Z,46.63
2023-04-10T09:08:20.647Z,45.49
2023-04-10T09:10:47.325Z,45.03
2023-04-10T09:13:14.065Z,46.79
2023-04-10T09:16:00.630Z,44.38
2023-04-10T09:18:43.207Z,43.79
2023-04-10T09:21:15.607Z,43.68
2023-04-10T09:23:44.588Z,45.44
2023-04-10T09:26:26.350Z,45.57
2023-04-10T09:28:58.126Z,44.30
2023-04-10T09:31:33.311Z,42.29
2023-04-10T09:34:21.702Z,43.35
2023-04-10T09:36:56.936Z,41.47
2023-04-10T09:39:33.945Z,39.65
2023-04-10T09:42:00.716Z,40.69
2023-04-10T09:44:34.110Z,39.83
2023-04-10T09:47:21.974Z,38.95
2023-04-10T09:49:50.644Z,39.47
2023-04-10T09:52:22.640Z,39.18
2023-04-10T09:54:49.304Z,39.59
2023-04-10T09:57:21.269Z,40.75
2023-04-10T09:59:53.155Z,38.44
2023-04-10T10:02:21.581Z,37.58
2023-04-10T10:04:49.445Z,38.13
2023-04-10T10:07:17.340Z,36.95
2023-04-10T10:09:45.259Z,37.02
2023-04-10T10:12:13.120Z,35.41
2023-04-10T10:15:12.905Z,35.35
2023-04-10T10:17:43.959Z,35.13
2023-04-10T10:20:12.025Z,35.95
2023-04-10T10:22:38.949Z,36.51
2023-04-10T10:25:08.159Z,38.02
2023-04-10T10:27:37.578Z,36.88
2023-04-10T10:30:12.041Z,36.94
2023-04-10T10:32:48.040Z,37.37
2023-04-10T10:35:15.007Z,37.32
2023-04-10T10:37:42.914Z,36.27
2023-04-10T10:40:14.688Z,36.67
2023-04-10T10:42:46.980Z,36.25
2023-04-10T10:45:26.169Z,37.00
2023-04-10T10:47:54.656Z,35.57
2023-04-10T10:50:24.953Z,36.63
2023-04-10T10:52:54.159Z,35.78
2023-04-10T10:55:37.314Z,34.81
2023-04-10T10:58:06.757Z,34.88
2023-04-10T11:00:52.030Z,35.18
2023-04-10T11:03:19.241Z,34.19
2023-04-10T11:05:50.996Z,33.07
2023-04-10T11:08:18.045Z,31.84
2023-04-10T11:11:05.992Z,32.86
2023-04-10T11:13:33.737Z,31.06
2023-04-10T11:16:04.635Z,30.08
2023-04-10T11:18:49.612Z,30.20
2023-04-10T11:21:23.782Z,29.18
2023-04-10T11:23:50.436Z,28.64
2023-04-10T11:26:41.740Z,28.67
2023-04-10T11:29:17.767Z,28.40
2023-04-10T11:31:45.748Z,29.25
2023-04-10T11:34:12.686Z,28.41
2023-04-10T11:36:44.301Z,28.43
2023-04-10T11:39:17.962Z,28.28
2023-04-10T11:41:52.809Z,27.46
2023-04-10T11:44:28.244Z,26.51
2023-04-10T11:46:55.065Z,26.88
2023-04-10T11:49:33.062Z,27.04
2023-04-10T11:51:59.849Z,26.68
2023-04-10T11:54:27.934Z,27.15
2023-04-10T11:57:11.897Z,25.50
2023-04-10T11:59:38.821Z,24.86
2023-04-10T12:02:13.108Z,26.27
2023-04-10T12:04:40.816Z,25.12
2023-04-10T12:07:08.164Z,25.64
2023-04-10T12:09:35.031Z,26.11
2023-04-10T12:12:04.315Z,26.97
2023-04-10T12:14:38.843Z,26.59
2023-04-10T12:17:07.979Z,24.99
2023-04-10T12:19:35.418Z,25.42
2023-04-10T12:22:03.228Z,25.26
2023-04-10T12:24:46.842Z,24.26
2023-04-10T12:27:23.728Z,24.58
2023-04-10T12:29:52.625Z,23.83
2023-04-10T12:32:20.086Z,24.86
2023-04-10T12:34:51.680Z,23.91
2023-04-10T12:37:21.661Z,25.16
2023-04-10T12:39:48.696Z,25.44
2023-04-10T12:42:21.167Z,25.08
2023-04-10T12:44:59.697Z,24.01
2023-04-10T12:47:28.039Z,23.54
2023-04-10T12:50:11.861Z,23.96
2023-04-10T12:52:41.730Z,26.21
2023-04-10T12:55:31.642Z,25.35
2023-04-10T12:57:58.720Z,26.42
2023-04-10T13:00:25.977Z,27.31
2023-04-10T13:02:52.963Z,28.84
2023-04-10T13:05:20.255Z,29.31
2023-04-10T13:07:46.958Z,28.43
2023-04-10T13:10:17.858Z,28.52
2023-04-10T13:12:47.281Z,26.86
2023-04-10T13:15:14.377Z,26.72
2023-04-10T13:17:42.626Z,25.53
2023-04-10T13:20:10.262Z,26.46
2023-04-10T13:22:37.376Z,26.22
2023-04-10T13:25:04.845Z,26.97
2023-04-10T13:27:31.693Z,27.56
2023-04-10T13:29:58.679Z,25.51
2023-04-10T13:32:25.610Z,26.34
2023-04-10T13:34:55.184Z,25.99
2023-04-10T13:37:22.015Z,27.31
2023-04-10T13:39:48.731Z,29.23
2023-04-10T13:42:15.624Z,30.84
2023-04-10T13:44:42.454Z,31.76
2023-04-10T13:47:09.415Z,31.65
2023-04-10T13:49:36.251Z,32.39
2023-04-10T13:52:03.150Z,32.51
2023-04-10T13:54:29.987Z,32.71
2023-04-10T13:56:57.732Z,32.96
2023-04-10T13:59:25.498Z,34.41
2023-04-10T14:01:52.751Z,33.85
2023-04-10T14:04:19.879Z,32.88
2023-04-10T14:06:46.789Z,33.82
2023-04-10T14:09:13.648Z,33.41
2023-04-10T14:11:40.440Z,33.51
2023-04-10T14:14:07.157Z,33.07
2023-04-10T14:16:33.900Z,33.96
2023-04-10T14:19:00.752Z,34.82
2023-04-10T14:21:27.694Z,34.88
2023-04-10T14:23:54.522Z,36.06
2023-04-10T14:26:21.731Z,35.45
2023-04-10T14:28:48.490Z,35.88
2023-04-10T14:31:15.164Z,34.79
2023-04-10T14:33:41.905Z,35.16
2023-04-10T14:36:09.029Z,36.60
2023-04-10T14:38:37.003Z,36.94
2023-04-10T14:41:04.019Z,37.15
2023-04-10T14:43:30.935Z,37.37
2023-04-10T14:45:58.691Z,36.88
2023-04-10T14:48:25.741Z,36.80
2023-04-10T14:50:52.584Z,35.86
2023-04-10T14:53:21.777Z,36.19
2023-04-10T14:55:48.490Z,36.32
2023-04-10T14:58:15.154Z,37.34
2023-04-10T15:00:44.094Z,38.13
2023-04-10T15:03:11.187Z,38.11
2023-04-10T15:05:41.976Z,38.63
2023-04-10T15:08:09.376Z,37.25
2023-04-10T15:10:45.073Z,37.98
2023-04-10T15:16:29.139Z,38.85
2023-04-10T15:18:57.266Z,38.77
2023-04-10T15:21:32.573Z,39.28
2023-04-10T15:24:03.548Z,38.95
2023-04-10T15:26:30.847Z,39.84
2023-04-10T15:28:57.788Z,39.64
2023-04-10T15:31:24.737Z,39.80
2023-04-10T15:33:52.233Z,38.52
2023-04-10T15:36:19.264Z,38.80
2023-04-10T15:38:49.945Z,39.54
2023-04-10T15:41:17.070Z,40.05
2023-04-10T15:43:44.451Z,39.52
2023-04-10T15:46:11.327Z,39.43
2023-04-10T15:48:38.534Z,39.55
2023-04-10T15:51:08.522Z,39.78
2023-04-10T15:53:35.877Z,39.47
2023-04-10T15:56:06.625Z,39.42
2023-04-10T15:58:33.722Z,38.39
2023-04-10T16:01:00.612Z,38.99
2023-04-10T16:03:30.028Z,38.70
2023-04-10T16:05:58.717Z,38.99
2023-04-10T16:08:26.580Z,38.71
2023-04-10T16:10:54.168Z,38.56
2023-04-10T16:13:21.107Z,39.09
2023-04-10T16:15:47.867Z,38.53
2023-04-10T16:18:14.677Z,39.06
2023-04-10T16:20:42.054Z,38.84
2023-04-10T16:23:08.740Z,39.51
